createdAt,value
2019-05-18T00:01:30.923Z,7.20
2019-05-18T00:03:59.300Z,7.27
2019-05-18T00:06:27.664Z,7.33
2019-05-18T00:08:56.029Z,7.37
2019-05-18T00:11:24.418Z,6.70
2019-05-18T00:13:52.793Z,7.13
2019-05-18T00:16:21.178Z,6.57
2019-05-18T00:18:49.543Z,6.93
2019-05-18T00:21:17.928Z,7.10
2019-05-18T00:23:46.314Z,7.07
2019-05-18T00:26:14.693Z,6.80
2019-05-18T00:28:43.058Z,7.10
2019-05-18T00:31:11.454Z,6.80
2019-05-18T00:33:39.818Z,6.70
2019-05-18T00:36:08.209Z,7.07
2019-05-18T00:38:36.584Z,6.43
2019-05-18T00:41:04.977Z,6.43
2019-05-18T00:43:33.337Z,6.80
2019-05-18T00:46:01.759Z,6.90
2019-05-18T00:48:30.110Z,7.10
2019-05-18T00:50:58.478Z,6.97
2019-05-18T00:53:26.858Z,6.93
2019-05-18T00:55:55.228Z,6.40
2019-05-18T00:58:23.625Z,6.53
2019-05-18T01:00:52.005Z,6.97
2019-05-18T01:03:20.403Z,7.30
2019-05-18T01:05:48.757Z,7.20
2019-05-18T01:08:17.155Z,7.00
2019-05-18T01:10:45.525Z,7.37
2019-05-18T01:13:13.911Z,6.37
2019-05-18T01:15:42.288Z,6.63
2019-05-18T01:18:10.657Z,6.57
2019-05-18T01:20:39.049Z,6.90
2019-05-18T01:23:07.493Z,6.73
2019-05-18T01:25:35.885Z,6.70
2019-05-18T01:28:04.225Z,7.20
2019-05-18T01:30:32.551Z,6.97
2019-05-18T01:33:00.923Z,6.63
2019-05-18T01:35:29.319Z,6.80
2019-05-18T01:37:57.679Z,6.90
2019-05-18T01:40:26.033Z,7.07
2019-05-18T01:42:54.313Z,7.53
2019-05-18T01:45:22.613Z,6.70
2019-05-18T01:47:51.023Z,6.07
2019-05-18T01:50:19.385Z,6.87
2019-05-18T01:52:47.663Z,6.50
2019-05-18T01:55:15.962Z,6.27
2019-05-18T01:57:44.319Z,6.47
2019-05-18T02:00:12.608Z,6.40
2019-05-18T02:02:40.966Z,6.50
2019-05-18T02:05:09.351Z,6.93
2019-05-18T02:07:37.711Z,7.07
2019-05-18T02:10:06.071Z,6.60
2019-05-18T02:12:34.357Z,6.93
2019-05-18T02:15:02.776Z,7.17
2019-05-18T02:17:31.107Z,6.83
2019-05-18T02:19:59.424Z,6.63
2019-05-18T02:22:27.792Z,6.80
2019-05-18T02:24:56.187Z,6.67
2019-05-18T02:27:24.552Z,7.23
2019-05-18T02:29:52.951Z,6.83
2019-05-18T02:32:21.329Z,6.60
2019-05-18T02:34:49.713Z,7.07
2019-05-18T02:37:18.104Z,7.03
2019-05-18T02:39:48.111Z,6.70
2019-05-18T02:42:16.474Z,6.67
2019-05-18T02:44:44.842Z,6.93
2019-05-18T02:47:13.243Z,6.63
2019-05-18T02:49:41.604Z,6.60
2019-05-18T02:52:10.002Z,6.67
2019-05-18T02:54:38.372Z,6.37
2019-05-18T02:57:06.776Z,6.13
2019-05-18T02:59:35.123Z,7.13
2019-05-18T03:02:03.486Z,6.47
2019-05-18T03:04:31.910Z,6.87
2019-05-18T03:07:00.260Z,6.80
2019-05-18T03:09:28.611Z,6.63
2019-05-18T03:11:57.042Z,6.93
2019-05-18T03:14:25.342Z,7.30
2019-05-18T03:16:53.688Z,7.13
2019-05-18T03:19:21.962Z,6.77
2019-05-18T03:21:50.277Z,6.40
2019-05-18T03:24:18.640Z,7.03
2019-05-18T03:26:47.028Z,6.90
2019-05-18T03:29:15.375Z,6.47
2019-05-18T03:31:43.748Z,6.73
2019-05-18T03:34:12.087Z,7.13
2019-05-18T03:36:40.455Z,6.87
2019-05-18T03:39:08.808Z,6.57
2019-05-18T03:41:37.135Z,6.57
2019-05-18T03:44:05.493Z,6.73
2019-05-18T03:46:33.851Z,6.70
2019-05-18T03:49:02.205Z,6.53
2019-05-18T03:51:30.564Z,6.67
2019-05-18T03:53:58.834Z,6.60
2019-05-18T03:56:27.159Z,6.70
2019-05-18T03:58:55.479Z,6.70
2019-05-18T04:01:23.843Z,6.83
2019-05-18T04:03:52.200Z,6.70
2019-05-18T04:06:20.560Z,6.37
2019-05-18T04:08:48.832Z,6.43
2019-05-18T04:11:17.135Z,6.80
2019-05-18T04:13:45.479Z,6.30
2019-05-18T04:16:13.764Z,6.93
2019-05-18T04:18:42.129Z,6.50
2019-05-18T04:21:10.477Z,6.17
2019-05-18T04:23:38.847Z,6.67
2019-05-18T04:26:07.199Z,6.57
2019-05-18T04:28:35.600Z,6.37
2019-05-18T04:31:03.946Z,6.80
2019-05-18T04:33:32.273Z,7.00
2019-05-18T04:36:00.625Z,6.83
2019-05-18T04:38:29.014Z,6.27
2019-05-18T04:40:57.356Z,7.00
2019-05-18T04:43:25.645Z,6.20
2019-05-18T04:45:53.915Z,6.80
2019-05-18T04:48:22.199Z,6.27
2019-05-18T04:50:50.470Z,6.70
2019-05-18T04:53:18.770Z,6.63
2019-05-18T04:55:47.121Z,6.73
2019-05-18T04:58:15.418Z,6.37
2019-05-18T05:00:43.771Z,6.93
2019-05-18T05:03:12.226Z,6.70
2019-05-18T05:05:40.555Z,6.67
2019-05-18T05:08:08.849Z,6.60
2019-05-18T05:10:37.119Z,6.80
2019-05-18T05:13:05.418Z,6.50
2019-05-18T05:15:33.781Z,6.53
2019-05-18T05:18:02.171Z,6.10
2019-05-18T05:20:30.512Z,6.93
2019-05-18T05:22:58.813Z,6.10
2019-05-18T05:25:27.159Z,7.10
2019-05-18T05:27:55.472Z,6.17
2019-05-18T05:30:23.757Z,6.43
2019-05-18T05:32:52.043Z,6.50
2019-05-18T05:35:20.403Z,6.53
2019-05-18T05:37:48.689Z,6.50
2019-05-18T05:40:16.987Z,6.10
2019-05-18T05:42:45.348Z,6.27
2019-05-18T05:45:13.706Z,5.83
2019-05-18T05:47:42.055Z,6.50
2019-05-18T05:50:10.348Z,6.10
2019-05-18T05:52:38.626Z,5.90
2019-05-18T05:55:07.686Z,6.23
2019-05-18T05:57:35.966Z,6.17
2019-05-18T06:00:05.977Z,5.70
2019-05-18T06:02:34.263Z,5.53
2019-05-18T06:05:02.719Z,5.10
2019-05-18T06:07:31.076Z,5.30
2019-05-18T06:09:59.427Z,5.30
2019-05-18T06:12:27.723Z,5.30
2019-05-18T06:14:56.010Z,4.97
2019-05-18T06:17:24.377Z,5.07
2019-05-18T06:19:52.644Z,4.97
2019-05-18T06:22:20.939Z,5.47
2019-05-18T06:24:49.224Z,5.10
2019-05-18T06:27:17.686Z,5.43
2019-05-18T06:29:45.960Z,4.93
2019-05-18T06:32:14.297Z,5.53
2019-05-18T06:34:42.679Z,5.30
2019-05-18T06:37:11.293Z,5.40
2019-05-18T06:39:39.602Z,5.37
2019-05-18T06:42:10.796Z,5.50
2019-05-18T06:44:37.973Z,5.30
2019-05-18T06:47:06.327Z,5.67
2019-05-18T06:49:34.708Z,5.87
2019-05-18T06:52:03.100Z,5.40
2019-05-18T06:54:31.458Z,5.30
2019-05-18T06:57:00.331Z,5.33
2019-05-18T06:59:28.816Z,5.10
2019-05-18T07:01:57.139Z,5.43
2019-05-18T07:04:25.411Z,5.67
2019-05-18T07:06:53.707Z,6.20
2019-05-18T07:09:22.003Z,7.53
2019-05-18T07:11:50.377Z,7.73
2019-05-18T07:14:25.636Z,7.90
2019-05-18T07:16:48.836Z,7.93
2019-05-18T07:19:17.192Z,8.50
2019-05-18T07:21:45.566Z,7.90
2019-05-18T07:24:13.844Z,7.97
2019-05-18T07:26:42.140Z,8.37
2019-05-18T07:29:10.424Z,8.40
2019-05-18T07:31:38.791Z,8.60
2019-05-18T07:34:07.072Z,8.80
2019-05-18T07:36:35.597Z,8.50
2019-05-18T07:39:05.504Z,8.73
2019-05-18T07:41:45.900Z,8.90
2019-05-18T07:44:03.870Z,8.07
2019-05-18T07:46:32.221Z,8.07
2019-05-18T07:49:00.501Z,8.20
2019-05-18T07:51:36.542Z,7.83
2019-05-18T07:53:58.889Z,8.60
2019-05-18T07:56:27.260Z,8.73
2019-05-18T07:58:55.541Z,7.87
2019-05-18T08:01:23.899Z,8.10
2019-05-18T08:03:52.263Z,7.40
2019-05-18T08:06:20.554Z,8.17
2019-05-18T08:08:48.934Z,7.40
2019-05-18T08:11:17.287Z,7.30
2019-05-18T08:13:45.586Z,6.90
2019-05-18T08:16:13.870Z,7.47
2019-05-18T08:18:42.262Z,7.07
2019-05-18T08:21:10.623Z,7.07
2019-05-18T08:23:39.387Z,6.60
2019-05-18T08:26:07.815Z,6.73
2019-05-18T08:28:36.180Z,7.13
2019-05-18T08:31:04.574Z,7.30
2019-05-18T08:33:33.022Z,7.00
2019-05-18T08:36:01.387Z,6.73
2019-05-18T08:38:29.743Z,7.23
2019-05-18T08:40:58.028Z,8.00
2019-05-18T08:43:26.304Z,8.23
2019-05-18T08:45:54.886Z,8.77
2019-05-18T08:48:23.242Z,8.87
2019-05-18T08:50:51.570Z,10.30
2019-05-18T08:53:19.934Z,10.23
2019-05-18T08:55:48.316Z,10.70
2019-05-18T08:58:16.691Z,11.03
2019-05-18T09:00:45.060Z,11.33
2019-05-18T09:03:13.424Z,10.90
2019-05-18T09:05:42.077Z,10.73
2019-05-18T09:08:10.434Z,11.53
2019-05-18T09:10:38.722Z,11.60
2019-05-18T09:13:07.023Z,11.37
2019-05-18T09:15:35.310Z,11.33
2019-05-18T09:18:04.955Z,10.83
2019-05-18T09:20:33.557Z,10.50
2019-05-18T09:23:01.922Z,9.80
2019-05-18T09:25:30.283Z,10.27
2019-05-18T09:27:58.655Z,10.83
2019-05-18T09:30:27.037Z,10.33
2019-05-18T09:32:55.458Z,9.53
2019-05-18T09:35:23.743Z,9.60
2019-05-18T09:37:52.054Z,10.20
2019-05-18T09:40:20.515Z,10.33
2019-05-18T09:42:48.847Z,8.53
2019-05-18T09:45:17.154Z,8.70
2019-05-18T09:47:45.514Z,8.17
2019-05-18T09:50:13.945Z,8.73
2019-05-18T09:52:45.489Z,8.10
2019-05-18T09:55:12.313Z,7.87
2019-05-18T09:57:40.624Z,7.70
2019-05-18T10:00:10.101Z,7.60
2019-05-18T10:02:38.396Z,8.13
2019-05-18T10:05:06.675Z,7.73
2019-05-18T10:07:35.205Z,7.90
2019-05-18T10:10:07.416Z,7.27
2019-05-18T10:12:35.731Z,7.50
2019-05-18T10:15:07.898Z,7.50
2019-05-18T10:17:36.293Z,7.60
2019-05-18T10:20:07.990Z,7.30
2019-05-18T10:22:36.266Z,7.50
2019-05-18T10:25:06.299Z,7.83
2019-05-18T10:27:34.586Z,8.10
2019-05-18T10:30:03.955Z,8.10
2019-05-18T10:32:32.320Z,8.10
2019-05-18T10:35:00.633Z,7.20
2019-05-18T10:37:28.987Z,7.57
2019-05-18T10:39:57.369Z,7.67
2019-05-18T10:42:25.723Z,8.33
2019-05-18T10:44:54.020Z,7.43
2019-05-18T10:47:22.303Z,8.00
2019-05-18T10:49:50.596Z,7.50
2019-05-18T10:52:18.885Z,7.50
2019-05-18T10:54:47.238Z,7.93
2019-05-18T10:57:15.610Z,7.23
2019-05-18T10:59:43.931Z,7.23
2019-05-18T11:02:12.300Z,7.17
2019-05-18T11:04:40.573Z,7.13
2019-05-18T11:07:08.888Z,7.07
2019-05-18T11:09:37.248Z,7.03
2019-05-18T11:12:05.611Z,7.07
2019-05-18T11:14:33.891Z,7.37
2019-05-18T11:17:02.252Z,7.30
2019-05-18T11:19:30.540Z,7.07
2019-05-18T11:21:58.917Z,7.27
2019-05-18T11:24:27.269Z,6.90
2019-05-18T11:26:55.668Z,7.43
2019-05-18T11:29:24.450Z,6.80
2019-05-18T11:31:53.206Z,6.63
2019-05-18T11:34:21.555Z,7.30
2019-05-18T11:36:49.856Z,6.60
2019-05-18T11:39:18.206Z,6.13
2019-05-18T11:41:46.974Z,6.37
2019-05-18T11:44:15.336Z,6.10
2019-05-18T11:46:43.709Z,6.40
2019-05-18T11:49:12.061Z,6.43
2019-05-18T11:51:40.367Z,6.10
2019-05-18T11:54:08.734Z,6.87
2019-05-18T11:56:37.105Z,5.67
2019-05-18T11:59:05.500Z,6.00
2019-05-18T12:01:33.937Z,6.47
2019-05-18T12:04:02.245Z,6.90
2019-05-18T12:06:30.600Z,7.00
2019-05-18T12:08:58.971Z,6.27
2019-05-18T12:11:27.247Z,6.40
2019-05-18T12:13:56.178Z,6.63
2019-05-18T12:16:24.477Z,5.77
2019-05-18T12:18:52.788Z,6.30
2019-05-18T12:21:21.235Z,6.70
2019-05-18T12:23:49.556Z,6.67
2019-05-18T12:26:17.905Z,6.80
2019-05-18T12:28:46.195Z,6.33
2019-05-18T12:31:14.480Z,5.80
2019-05-18T12:33:42.860Z,6.30
2019-05-18T12:36:11.240Z,6.30
2019-05-18T12:38:39.585Z,6.47
2019-05-18T12:41:07.856Z,5.77
2019-05-18T12:43:36.159Z,6.23
2019-05-18T12:46:04.615Z,6.10
2019-05-18T12:48:32.971Z,5.97
2019-05-18T12:51:01.428Z,6.20
2019-05-18T12:53:32.714Z,5.80
2019-05-18T12:56:01.121Z,5.53
2019-05-18T12:58:29.444Z,5.33
2019-05-18T13:00:57.833Z,6.03
2019-05-18T13:03:26.123Z,5.73
2019-05-18T13:05:54.508Z,5.60
2019-05-18T13:08:22.789Z,5.47
2019-05-18T13:10:51.085Z,5.47
2019-05-18T13:13:19.433Z,5.40
2019-05-18T13:15:47.722Z,5.63
2019-05-18T13:18:16.088Z,5.37
2019-05-18T13:20:44.475Z,5.17
2019-05-18T13:23:12.821Z,5.10
2019-05-18T13:25:41.196Z,5.20
2019-05-18T13:28:09.478Z,4.87
2019-05-18T13:30:37.754Z,4.90
2019-05-18T13:33:06.064Z,4.90
2019-05-18T13:35:34.420Z,5.10
2019-05-18T13:38:02.734Z,4.63
2019-05-18T13:40:31.107Z,4.43
2019-05-18T13:42:59.464Z,4.83
2019-05-18T13:45:27.822Z,5.00
2019-05-18T13:47:56.264Z,5.20
2019-05-18T13:50:24.680Z,4.70
2019-05-18T13:52:52.975Z,5.17
2019-05-18T13:55:21.502Z,4.80
2019-05-18T13:57:49.867Z,4.30
2019-05-18T14:00:18.243Z,4.37
2019-05-18T14:02:46.600Z,4.53
2019-05-18T14:05:16.340Z,4.83
2019-05-18T14:07:44.695Z,4.90
2019-05-18T14:10:13.055Z,4.87
2019-05-18T14:12:41.396Z,4.93
2019-05-18T14:15:09.700Z,4.70
2019-05-18T14:17:38.142Z,4.67
2019-05-18T14:20:06.581Z,4.67
2019-05-18T14:22:34.870Z,4.60
2019-05-18T14:25:18.243Z,4.90
2019-05-18T14:27:34.687Z,4.90
2019-05-18T14:30:03.230Z,4.87
2019-05-18T14:32:31.510Z,4.90
2019-05-18T14:34:59.787Z,5.67
2019-05-18T14:37:28.154Z,5.70
2019-05-18T14:39:56.463Z,5.30
2019-05-18T14:42:24.798Z,5.00
2019-05-18T14:44:53.075Z,5.47
2019-05-18T14:47:21.373Z,4.90
2019-05-18T14:49:49.668Z,5.03
2019-05-18T14:52:17.976Z,4.67
2019-05-18T14:54:46.330Z,4.97
2019-05-18T14:57:14.632Z,5.20
2019-05-18T14:59:42.906Z,5.10
2019-05-18T15:02:11.276Z,5.00
2019-05-18T15:04:39.556Z,5.07
2019-05-18T15:07:07.856Z,4.70
2019-05-18T15:09:36.135Z,4.93
2019-05-18T15:12:04.425Z,4.87
2019-05-18T15:14:32.706Z,4.60
2019-05-18T15:17:01.152Z,4.97
2019-05-18T15:19:29.771Z,4.77
2019-05-18T15:21:58.372Z,4.67
2019-05-18T15:24:26.740Z,4.97
2019-05-18T15:26:55.024Z,4.33
2019-05-18T15:29:23.382Z,4.40
2019-05-18T15:31:51.657Z,4.93
2019-05-18T15:34:20.240Z,4.43
2019-05-18T15:36:48.595Z,4.43
2019-05-18T15:39:17.024Z,4.40
2019-05-18T15:41:45.353Z,4.60
2019-05-18T15:44:13.729Z,4.60
2019-05-18T15:46:42.017Z,4.70
2019-05-18T15:49:10.492Z,4.33
2019-05-18T15:51:38.859Z,4.07
2019-05-18T15:54:07.255Z,4.37
2019-05-18T15:56:35.601Z,4.60
2019-05-18T15:59:03.890Z,4.53
2019-05-18T16:01:32.179Z,4.30
2019-05-18T16:04:00.547Z,4.50
2019-05-18T16:06:28.864Z,4.23
2019-05-18T16:08:57.309Z,4.13
2019-05-18T16:11:25.770Z,4.10
2019-05-18T16:13:54.137Z,4.30
2019-05-18T16:16:22.416Z,4.23
2019-05-18T16:18:50.735Z,4.50
2019-05-18T16:21:19.071Z,4.33
2019-05-18T16:23:47.370Z,4.50
2019-05-18T16:26:21.468Z,4.27
2019-05-18T16:28:45.736Z,4.40
2019-05-18T16:31:14.023Z,4.30
2019-05-18T16:33:42.331Z,4.40
2019-05-18T16:36:10.716Z,4.10
2019-05-18T16:38:39.016Z,4.10
2019-05-18T16:41:07.407Z,4.43
2019-05-18T16:43:35.788Z,5.40
2019-05-18T16:46:04.076Z,5.00
2019-05-18T16:48:32.364Z,5.10
2019-05-18T16:51:00.676Z,6.13
2019-05-18T16:53:29.018Z,6.73
2019-05-18T16:55:57.327Z,6.83
2019-05-18T16:58:25.628Z,7.40
2019-05-18T17:00:53.962Z,7.57
2019-05-18T17:03:22.307Z,7.17
2019-05-18T17:05:50.620Z,7.93
2019-05-18T17:08:19.077Z,8.13
2019-05-18T17:10:47.397Z,8.37
2019-05-18T17:13:15.704Z,8.23
2019-05-18T17:15:45.636Z,8.63
2019-05-18T17:18:14.038Z,8.10
2019-05-18T17:20:43.386Z,7.77
2019-05-18T17:23:11.781Z,8.13
2019-05-18T17:25:40.133Z,8.20
2019-05-18T17:28:08.545Z,8.17
2019-05-18T17:30:36.890Z,7.17
2019-05-18T17:33:05.347Z,7.20
2019-05-18T17:35:33.749Z,7.20
2019-05-18T17:38:02.280Z,7.70
2019-05-18T17:40:30.631Z,8.53
2019-05-18T17:42:59.017Z,8.83
2019-05-18T17:45:27.486Z,8.13
2019-05-18T17:47:56.006Z,9.37
2019-05-18T17:50:24.391Z,9.13
2019-05-18T17:52:52.796Z,9.83
2019-05-18T17:55:21.143Z,9.27
2019-05-18T17:57:49.429Z,8.83
2019-05-18T18:00:17.794Z,8.83
2019-05-18T18:02:48.166Z,9.17
2019-05-18T18:05:16.119Z,9.03
2019-05-18T18:07:44.470Z,9.27
2019-05-18T18:10:12.842Z,9.10
2019-05-18T18:12:41.118Z,8.87
2019-05-18T18:15:09.416Z,8.90
2019-05-18T18:17:37.836Z,8.70
2019-05-18T18:20:06.756Z,8.60
2019-05-18T18:22:35.068Z,8.67
2019-05-18T18:25:03.821Z,8.63
2019-05-18T18:27:32.105Z,8.83
2019-05-18T18:30:00.456Z,9.37
2019-05-18T18:32:28.751Z,8.50
2019-05-18T18:34:57.032Z,8.63
2019-05-18T18:37:25.402Z,8.57
2019-05-18T18:39:53.746Z,8.33
2019-05-18T18:42:22.058Z,8.47
2019-05-18T18:44:50.396Z,8.70
2019-05-18T18:47:18.700Z,8.63
2019-05-18T18:49:47.058Z,8.67
2019-05-18T18:52:15.424Z,9.40
2019-05-18T18:54:43.778Z,9.27
2019-05-18T18:57:12.111Z,9.43
2019-05-18T18:59:40.443Z,9.33
2019-05-18T19:02:08.727Z,9.70
2019-05-18T19:04:37.060Z,8.60
2019-05-18T19:07:08.534Z,8.40
2019-05-18T19:09:35.403Z,7.70
2019-05-18T19:12:03.684Z,7.80
2019-05-18T19:14:31.993Z,6.77
2019-05-18T19:17:00.345Z,6.60
2019-05-18T19:19:28.714Z,6.63
2019-05-18T19:21:56.982Z,6.87
2019-05-18T19:24:25.426Z,6.47
2019-05-18T19:26:53.780Z,6.23
2019-05-18T19:29:22.155Z,6.07
2019-05-18T19:31:51.239Z,5.63
2019-05-18T19:34:19.602Z,5.87
2019-05-18T19:36:47.873Z,5.60
2019-05-18T19:39:16.156Z,5.77
2019-05-18T19:41:44.533Z,6.10
2019-05-18T19:44:12.896Z,5.53
2019-05-18T19:46:41.171Z,5.37
2019-05-18T19:49:09.547Z,5.80
2019-05-18T19:51:37.834Z,5.57
2019-05-18T19:54:06.217Z,5.53
2019-05-18T19:56:39.409Z,5.47
2019-05-18T19:59:04.597Z,5.10
2019-05-18T20:01:32.957Z,5.37
2019-05-18T20:04:01.350Z,4.90
2019-05-18T20:06:29.618Z,5.20
2019-05-18T20:08:57.972Z,5.57
2019-05-18T20:11:26.286Z,5.00
2019-05-18T20:13:54.577Z,5.13
2019-05-18T20:16:22.989Z,5.63
2019-05-18T20:18:51.320Z,5.40
2019-05-18T20:21:19.626Z,5.07
2019-05-18T20:23:47.986Z,5.50
2019-05-18T20:26:16.277Z,5.37
2019-05-18T20:28:44.544Z,5.63
2019-05-18T20:31:12.854Z,5.30
2019-05-18T20:33:41.198Z,5.20
2019-05-18T20:36:09.485Z,5.37
2019-05-18T20:38:37.772Z,5.13
2019-05-18T20:41:06.149Z,5.30
2019-05-18T20:43:34.529Z,5.43
2019-05-18T20:46:02.836Z,5.53
2019-05-18T20:48:31.127Z,4.97
2019-05-18T20:50:59.499Z,5.77
2019-05-18T20:53:27.804Z,5.50
2019-05-18T20:55:56.143Z,6.00
2019-05-18T20:58:38.834Z,5.70
2019-05-18T21:00:54.439Z,5.73
2019-05-18T21:03:22.739Z,6.00
2019-05-18T21:05:51.021Z,6.23
2019-05-18T21:08:19.391Z,6.10
2019-05-18T21:10:47.673Z,5.70
2019-05-18T21:13:16.042Z,5.73
2019-05-18T21:15:44.387Z,6.10
2019-05-18T21:18:12.753Z,6.33
2019-05-18T21:20:41.040Z,6.50
2019-05-18T21:23:09.412Z,5.80
2019-05-18T21:25:37.760Z,5.67
2019-05-18T21:28:06.127Z,5.77
2019-05-18T21:30:34.407Z,6.07
2019-05-18T21:33:02.700Z,6.10
2019-05-18T21:35:30.984Z,5.70
2019-05-18T21:37:59.283Z,5.90
2019-05-18T21:40:27.640Z,6.03
2019-05-18T21:42:55.933Z,6.20
2019-05-18T21:45:24.290Z,6.37
2019-05-18T21:47:52.580Z,5.50
2019-05-18T21:50:20.845Z,5.83
2019-05-18T21:52:49.137Z,5.87
2019-05-18T21:55:17.419Z,5.70
2019-05-18T21:57:45.797Z,5.30
2019-05-18T22:00:14.165Z,5.93
2019-05-18T22:02:42.533Z,5.73
2019-05-18T22:05:10.813Z,6.17
2019-05-18T22:07:39.086Z,6.40
2019-05-18T22:10:07.654Z,6.13
2019-05-18T22:12:35.937Z,6.00
2019-05-18T22:15:05.974Z,6.07
2019-05-18T22:17:35.956Z,5.73
2019-05-18T22:20:05.428Z,5.90
2019-05-18T22:22:33.807Z,5.67
2019-05-18T22:25:02.185Z,6.27
2019-05-18T22:27:30.514Z,6.10
2019-05-18T22:29:58.887Z,5.90
2019-05-18T22:32:27.246Z,6.00
2019-05-18T22:34:55.529Z,5.90
2019-05-18T22:37:23.820Z,5.47
2019-05-18T22:39:52.193Z,5.80
2019-05-18T22:42:20.458Z,5.50
2019-05-18T22:44:48.760Z,5.63
2019-05-18T22:47:17.106Z,5.70
2019-05-18T22:49:45.386Z,6.40
2019-05-18T22:52:13.690Z,6.30
2019-05-18T22:54:41.978Z,5.57
2019-05-18T22:57:10.279Z,6.37
2019-05-18T22:59:38.554Z,6.40
2019-05-18T23:02:06.854Z,6.03
2019-05-18T23:04:35.235Z,5.70
2019-05-18T23:07:03.585Z,6.10
2019-05-18T23:09:31.876Z,6.33
2019-05-18T23:12:00.247Z,6.10
2019-05-18T23:14:28.594Z,5.80
2019-05-18T23:16:57.159Z,6.00
2019-05-18T23:19:25.508Z,6.00
2019-05-18T23:21:53.870Z,6.00
2019-05-18T23:24:22.144Z,5.77
2019-05-18T23:26:50.428Z,5.90
2019-05-18T23:29:18.793Z,6.30
2019-05-18T23:31:47.068Z,6.57
2019-05-18T23:34:15.377Z,6.37
2019-05-18T23:36:43.664Z,6.53
2019-05-18T23:39:12.030Z,5.63
2019-05-18T23:41:40.378Z,6.27
2019-05-18T23:44:08.685Z,6.33
2019-05-18T23:46:36.954Z,6.60
2019-05-18T23:49:10.785Z,6.40
2019-05-18T23:51:35.236Z,6.03
2019-05-18T23:54:03.521Z,6.23
2019-05-18T23:56:31.870Z,6.73
2019-05-18T23:59:00.182Z,6.07
